LEMG/AGP METAR and TAF weather

Enter ICAO airport designator
Station Type Date Time Source
LEMG METAR 2019/12/14 17:00 UTC NOAA

LEMG 141700Z 29019G30KT 9999 FEW040 16/07 Q1018 NOSIG


Station Type Date Time Source
LEMG Decoded METAR 2019/12/14 17:00 UTC NOAA

Malaga / Aeropuerto, Spain (LEMG) 36-40N 004-29W 7M
Dec 14, 2019 - 12:00 PM EST / 2019.12.14 1700 UTC
Wind: from the WNW (290 degrees) at 22 MPH (19 KT) gusting to 35 MPH (30 KT):0
Visibility: greater than 7 mile(s):0
Sky conditions: mostly clear
Temperature: 60 F (16 C)
Dew Point: 44 F (7 C)
Relative Humidity: 55%
Pressure (altimeter): 30.06 in. Hg (1018 hPa)
ob: LEMG 141700Z 29019G30KT 9999 FEW040 16/07 Q1018 NOSIG
cycle: 17

Station Type Date Time Source
LEMG TAF 2019/12/14 12:27 UTC NOAA

TAF LEMG 141100Z 1412/1512 29016KT 9999 FEW035 TX20/1415Z TN13/1506Z
TEMPO 1412/1417 29022G32KT PROB40
TEMPO 1418/1510 29016G26KT

Example: see airport list